Time;durP1;ratioP1;P1;durP2;ratioP2;P2;SDS_P1;SDS_P2;PMS_P1;PMS_P2;Temp;Humidity;BMP_temperature;BMP_pressure;BME280_temperature;BME280_humidity;BME280_pressure;Samples;Min_cycle;Max_cycle;Signal;HPM_P1;HPM_P2
2024/02/01 00:00:52;;;;;;;20.60;13.80;;;8.00;86.90;;;7.55;83.99;98983.19;5066031;28;20457;-75
2024/02/01 00:03:20;;;;;;;17.77;14.53;;;8.00;86.90;;;7.53;84.58;98969.06;5066898;28;21407;-77
2024/02/01 00:05:47;;;;;;;17.50;13.07;;;8.00;86.90;;;7.52;84.84;98972.78;5065276;28;20939;-76
2024/02/01 00:08:16;;;;;;;17.40;12.93;;;8.00;87.10;;;7.59;84.15;98989.88;5058522;28;20457;-74
2024/02/01 00:10:43;;;;;;;17.00;12.90;;;8.00;87.30;;;7.60;83.95;98983.50;5066909;28;20929;-77
2024/02/01 00:13:10;;;;;;;15.80;12.20;;;8.00;87.00;;;7.58;83.89;98988.19;5062180;28;20459;-77
2024/02/01 00:15:37;;;;;;;14.87;11.80;;;8.00;87.00;;;7.46;85.05;98994.94;5060153;28;20438;-76
2024/02/01 00:18:05;;;;;;;14.63;11.00;;;8.00;87.00;;;7.53;84.57;98985.19;5064815;28;20942;-76
2024/02/01 00:20:32;;;;;;;12.63;10.47;;;8.00;87.20;;;7.51;85.26;98987.22;5060896;28;20457;-77
2024/02/01 00:23:00;;;;;;;16.23;10.50;;;8.00;87.30;;;7.53;84.24;98990.56;5062462;28;20528;-73
2024/02/01 00:25:28;;;;;;;11.57;8.90;;;8.00;86.90;;;7.56;83.41;98986.69;5066281;28;20457;-75
2024/02/01 00:27:57;;;;;;;14.17;9.33;;;8.10;86.50;;;7.59;83.32;98979.13;5066152;28;20466;-75
2024/02/01 00:30:25;;;;;;;11.50;8.70;;;8.10;86.40;;;7.71;82.82;98970.69;5063405;28;20542;-78
2024/02/01 00:32:52;;;;;;;16.17;8.20;;;8.20;86.10;;;7.79;82.34;98963.41;5064743;28;20982;-75
2024/02/01 00:35:19;;;;;;;9.50;7.20;;;8.30;85.70;;;7.81;80.83;98963.25;5079872;28;20453;-75
2024/02/01 00:37:46;;;;;;;6.53;5.30;;;8.30;85.00;;;7.90;78.59;98956.81;5062417;28;21005;-76
2024/02/01 00:40:14;;;;;;;5.63;5.10;;;8.40;83.80;;;8.10;76.53;98959.06;5069165;28;20937;-76
2024/02/01 00:42:43;;;;;;;5.83;5.13;;;8.60;82.80;;;8.20;75.39;98954.31;5069314;28;20446;-76
2024/02/01 00:45:10;;;;;;;7.30;4.70;;;8.70;81.90;;;8.19;75.06;98965.28;5071635;28;21239;-75
2024/02/01 00:47:37;;;;;;;8.53;5.03;;;8.70;81.50;;;8.32;74.75;98967.38;5068554;28;21064;-73
2024/02/01 00:50:06;;;;;;;5.23;4.50;;;8.80;81.10;;;8.34;73.63;98970.72;5061248;28;20457;-75
2024/02/01 00:52:33;;;;;;;6.70;4.97;;;8.90;80.70;;;8.37;73.39;98967.66;5061801;28;20983;-76
2024/02/01 00:55:01;;;;;;;9.00;4.80;;;8.90;80.10;;;8.41;73.37;98968.97;5063639;28;20456;-76
2024/02/01 00:57:28;;;;;;;6.50;5.27;;;8.90;80.10;;;8.41;73.50;98965.47;5080460;28;20470;-74
2024/02/01 00:59:56;;;;;;;7.43;4.60;;;8.90;80.20;;;8.38;73.30;98963.13;5067115;28;20803;-76
2024/02/01 01:02:23;;;;;;;6.20;5.00;;;8.90;80.20;;;8.29;73.58;98962.34;5069735;28;20448;-74
2024/02/01 01:04:51;;;;;;;5.63;5.00;;;8.80;80.10;;;8.32;73.52;98964.69;5083620;28;21008;-76
2024/02/01 01:07:18;;;;;;;7.03;5.57;;;8.90;80.10;;;8.40;73.56;98963.78;5055140;28;20959;-75
2024/02/01 01:09:46;;;;;;;6.23;5.30;;;8.90;80.20;;;8.17;73.54;98953.81;5069377;28;20512;-77
2024/02/01 01:12:13;;;;;;;6.57;5.10;;;8.80;79.90;;;8.19;73.15;98955.31;5069775;28;20455;-75
2024/02/01 01:14:40;;;;;;;5.70;4.73;;;8.80;79.70;;;8.10;72.80;98937.53;5067084;28;20450;-76
2024/02/01 01:17:09;;;;;;;5.47;4.60;;;8.80;79.50;;;8.16;72.58;98968.28;5066330;28;21082;-75
2024/02/01 01:19:36;;;;;;;5.27;4.77;;;8.70;79.10;;;8.18;72.36;98960.88;5061721;28;20451;-76
2024/02/01 01:22:03;;;;;;;8.07;5.10;;;8.70;79.00;;;8.27;72.40;98964.38;5065470;28;20490;-76
2024/02/01 01:24:32;;;;;;;6.13;4.70;;;8.70;79.00;;;8.25;72.23;98952.94;5061943;28;20468;-78
2024/02/01 01:27:00;;;;;;;7.03;5.00;;;8.70;79.00;;;8.06;72.40;98961.28;5058587;28;20488;-77
2024/02/01 01:29:27;;;;;;;6.07;4.60;;;8.70;78.90;;;8.10;72.24;98961.75;5068900;28;20446;-76
2024/02/01 01:31:54;;;;;;;5.83;4.07;;;8.70;79.10;;;8.03;72.25;98947.34;5068798;28;20442;-75
2024/02/01 01:34:22;;;;;;;6.13;4.67;;;8.60;78.70;;;8.00;72.36;98948.53;5076575;28;20489;-77
2024/02/01 01:36:50;;;;;;;5.87;4.40;;;8.50;78.50;;;8.01;71.71;98946.69;5060911;28;20477;-75
2024/02/01 01:39:17;;;;;;;5.80;4.30;;;8.60;78.40;;;7.36;72.26;98872.31;5061471;28;20454;-77
2024/02/01 01:41:45;;;;;;;4.30;3.60;;;8.50;78.20;;;7.98;71.46;98957.81;5068430;28;20457;-75
2024/02/01 01:44:13;;;;;;;9.17;4.40;;;8.50;78.10;;;7.43;71.16;98882.38;5069050;28;20462;-77
2024/02/01 01:46:40;;;;;;;5.13;3.80;;;8.50;78.00;;;7.87;70.99;98951.78;5067897;28;20462;-76
2024/02/01 01:49:08;;;;;;;4.07;3.47;;;8.50;77.80;;;7.89;70.68;98957.00;5068419;28;20467;-76
2024/02/01 01:51:38;;;;;;;4.60;3.90;;;8.50;77.60;;;8.02;70.43;98959.13;5080088;28;20968;-76
2024/02/01 01:54:07;;;;;;;5.37;4.50;;;8.50;77.40;;;7.88;70.26;98950.78;5057149;28;20507;-74
2024/02/01 01:56:37;;;;;;;6.63;3.70;;;8.50;77.30;;;7.62;70.05;98903.47;5061160;28;20487;-76
2024/02/01 01:59:07;;;;;;;5.37;4.30;;;8.40;77.30;;;7.84;70.12;98951.28;5061400;28;20978;-78
2024/02/01 02:01:36;;;;;;;7.73;4.00;;;8.40;77.00;;;7.85;70.22;98947.59;5066788;28;20464;-76
2024/02/01 02:04:07;;;;;;;4.17;3.60;;;8.50;77.20;;;7.84;70.22;98948.59;5058004;28;20455;-77
2024/02/01 02:06:34;;;;;;;5.13;3.23;;;8.40;77.00;;;7.86;69.56;98952.81;5061427;28;20467;-75
2024/02/01 02:09:03;;;;;;;3.83;3.43;;;8.40;76.90;;;7.86;70.30;98957.34;5065573;28;20450;-78
2024/02/01 02:11:31;;;;;;;4.20;3.60;;;8.40;77.00;;;7.90;69.61;98956.00;5066210;28;20479;-77
2024/02/01 02:13:58;;;;;;;2.83;2.63;;;8.40;77.00;;;7.83;70.06;98957.69;5065002;28;20456;-78
2024/02/01 02:16:25;;;;;;;5.63;3.57;;;8.40;77.00;;;7.76;69.91;98963.78;5063081;28;21001;-78
2024/02/01 02:18:52;;;;;;;6.30;3.73;;;8.40;76.80;;;7.67;69.59;98948.66;5061862;28;20457;-77
2024/02/01 02:21:22;;;;;;;4.30;3.17;;;8.30;76.50;;;7.71;69.51;98947.31;5060250;28;20491;-76
2024/02/01 02:23:52;;;;;;;3.30;2.90;;;8.30;76.60;;;7.69;68.54;98956.56;5057995;28;20526;-77
2024/02/01 02:26:19;;;;;;;5.27;3.17;;;8.30;76.00;;;7.67;68.31;98942.47;5066337;28;20455;-78
2024/02/01 02:28:46;;;;;;;3.40;2.57;;;8.30;75.60;;;7.69;68.38;98956.56;5069250;28;20474;-80
2024/02/01 02:31:13;;;;;;;3.20;2.90;;;8.30;75.60;;;7.61;68.22;98941.31;5054786;28;20458;-76
2024/02/01 02:33:40;;;;;;;3.40;2.83;;;8.20;75.40;;;7.58;68.26;98955.94;5064274;28;20933;-80
2024/02/01 02:36:09;;;;;;;4.00;2.77;;;8.20;75.30;;;7.69;68.24;98953.88;5077923;28;20957;-80
2024/02/01 02:38:39;;;;;;;3.27;2.67;;;8.20;75.50;;;7.63;68.57;98953.56;5062857;28;20458;-78
2024/02/01 02:41:07;;;;;;;3.00;2.70;;;8.20;75.50;;;7.57;68.34;98932.75;5066512;28;20883;-77
2024/02/01 02:43:35;;;;;;;3.07;2.53;;;8.20;75.40;;;7.65;68.44;98935.38;5056857;28;20461;-78
2024/02/01 02:46:02;;;;;;;5.03;2.80;;;8.20;75.50;;;7.49;69.00;98935.44;5069580;28;20456;-79
2024/02/01 02:48:29;;;;;;;3.90;2.80;;;8.10;75.60;;;7.10;69.27;98840.31;5066487;28;20460;-79
2024/02/01 02:50:57;;;;;;;3.00;2.23;;;8.00;75.70;;;7.50;68.77;98916.47;5061063;28;20459;-74
2024/02/01 02:53:24;;;;;;;5.10;3.57;;;8.00;75.80;;;7.43;69.73;98914.63;5060749;28;20458;-76
2024/02/01 02:55:51;;;;;;;4.90;2.73;;;8.00;76.00;;;7.27;70.08;98916.38;5063734;28;20469;-78
2024/02/01 02:58:20;;;;;;;4.70;2.80;;;7.80;75.90;;;7.28;69.81;98909.97;5062712;28;20550;-78
2024/02/01 03:00:47;;;;;;;3.00;2.50;;;7.90;76.20;;;7.26;70.33;98917.38;5063594;28;20457;-78
2024/02/01 03:03:14;;;;;;;2.77;2.47;;;7.90;76.20;;;7.19;70.52;98902.94;5066104;28;20480;-74
2024/02/01 03:05:41;;;;;;;4.10;3.00;;;7.80;76.30;;;7.15;71.03;98890.84;5067196;28;20453;-76
2024/02/01 03:08:09;;;;;;;4.50;3.00;;;7.80;76.50;;;7.23;71.18;98897.03;5066782;28;20457;-77
2024/02/01 03:10:36;;;;;;;4.37;3.00;;;7.80;76.60;;;7.18;71.46;98891.34;5069423;28;20453;-77
2024/02/01 03:13:09;;;;;;;6.40;2.90;;;7.70;76.70;;;7.13;71.79;98899.09;5068104;28;20455;-73
2024/02/01 03:15:38;;;;;;;4.97;2.70;;;7.70;76.90;;;7.14;71.64;98884.66;5085788;28;20490;-77
2024/02/01 03:18:10;;;;;;;4.50;3.30;;;7.70;77.20;;;7.08;72.18;98883.50;5082218;28;21056;-74
2024/02/01 03:20:37;;;;;;;3.20;2.87;;;7.60;77.20;;;7.14;72.14;98879.28;5063272;28;20464;-75
2024/02/01 03:23:05;;;;;;;4.97;2.80;;;7.60;77.40;;;7.13;72.41;98882.97;5065343;28;20920;-72
2024/02/01 03:25:32;;;;;;;3.80;2.60;;;7.70;77.30;;;7.20;72.17;98885.78;5063860;28;20459;-75
2024/02/01 03:28:04;;;;;;;3.70;3.23;;;7.70;77.30;;;7.23;71.93;98888.97;5059844;28;20461;-73
2024/02/01 03:30:33;;;;;;;3.63;2.93;;;7.70;77.30;;;7.27;72.00;98880.56;5062979;28;20450;-76
2024/02/01 03:33:02;;;;;;;3.63;2.70;;;7.70;77.50;;;7.40;71.54;98890.78;5066292;28;20446;-72
2024/02/01 03:35:31;;;;;;;4.90;3.13;;;7.80;77.50;;;7.36;71.74;98893.81;5059623;28;20511;-75
2024/02/01 03:37:59;;;;;;;4.77;3.80;;;7.80;77.40;;;7.25;71.71;98902.25;5064211;28;20625;-73
2024/02/01 03:40:26;;;;;;;4.23;2.97;;;7.80;77.30;;;7.28;71.74;98880.41;5063425;28;20458;-77
2024/02/01 03:42:53;;;;;;;4.40;3.00;;;7.80;77.30;;;7.46;71.36;98896.31;5066162;28;20446;-76
2024/02/01 03:45:20;;;;;;;4.20;3.13;;;7.90;77.70;;;7.42;71.89;98891.44;5059792;28;20473;-75
2024/02/01 03:47:48;;;;;;;4.20;2.93;;;7.90;77.60;;;7.42;71.92;98894.13;5060034;28;20525;-77
2024/02/01 03:50:17;;;;;;;3.50;2.77;;;7.90;77.70;;;7.42;71.77;98892.28;5063558;28;20462;-77
2024/02/01 03:52:45;;;;;;;5.07;3.50;;;7.90;77.60;;;7.45;72.12;98889.25;5080183;28;20455;-77
2024/02/01 03:55:18;;;;;;;5.33;3.33;;;7.90;77.80;;;7.28;73.50;98893.00;5064711;28;20454;-78
2024/02/01 03:57:48;;;;;;;3.93;2.80;;;7.80;77.80;;;7.43;72.54;98887.75;5062898;28;20834;-75
2024/02/01 04:00:28;;;;;;;5.00;3.27;;;7.90;78.20;;;7.39;73.33;98884.56;5067195;28;20456;-78
2024/02/01 04:02:56;;;;;;;5.87;3.50;;;7.90;78.30;;;7.30;72.72;98862.25;5067768;28;20532;-76
2024/02/01 04:05:26;;;;;;;3.60;3.30;;;7.90;78.30;;;7.44;73.13;98879.53;5066692;28;20452;-76
2024/02/01 04:07:54;;;;;;;5.30;3.40;;;7.90;78.20;;;7.50;72.96;98883.34;5065302;28;20564;-73
2024/02/01 04:10:21;;;;;;;5.30;3.27;;;7.90;78.20;;;7.47;73.12;98881.00;5059590;28;20454;-76
2024/02/01 04:12:49;;;;;;;4.10;3.30;;;8.00;78.30;;;7.45;72.95;98891.94;5064779;28;20454;-77
2024/02/01 04:15:16;;;;;;;4.37;3.20;;;7.90;78.30;;;7.44;73.26;98884.03;5059657;28;21088;-78
2024/02/01 04:17:44;;;;;;;3.40;2.90;;;7.90;78.50;;;7.43;73.45;98888.59;5066455;28;21048;-73
2024/02/01 04:20:14;;;;;;;7.13;3.87;;;7.90;78.60;;;7.41;73.71;98881.72;5065087;28;20501;-75
2024/02/01 04:22:44;;;;;;;5.60;3.80;;;7.90;78.70;;;7.42;73.83;98881.50;5060463;28;20529;-73
2024/02/01 04:25:11;;;;;;;4.90;4.23;;;7.90;78.70;;;7.26;74.48;98881.56;5064886;28;20449;-77
2024/02/01 04:27:38;;;;;;;4.77;3.47;;;7.90;78.80;;;7.36;74.68;98887.59;5064267;28;20514;-75
2024/02/01 04:30:07;;;;;;;4.40;4.00;;;7.80;79.00;;;7.35;74.62;98880.56;5065277;28;20453;-74
2024/02/01 04:32:35;;;;;;;11.20;4.07;;;7.90;78.90;;;7.29;74.48;98876.69;5065149;28;20452;-78
2024/02/01 04:35:04;;;;;;;8.53;4.40;;;7.90;78.90;;;7.39;74.67;98891.81;5060649;28;20484;-75
2024/02/01 04:37:32;;;;;;;5.40;4.00;;;7.90;78.90;;;7.44;73.99;98895.66;5062830;28;20479;-74
2024/02/01 04:40:03;;;;;;;5.23;3.80;;;7.90;79.00;;;7.27;73.92;98878.72;5070591;28;20475;-78
2024/02/01 04:42:30;;;;;;;5.30;3.93;;;7.90;79.10;;;7.50;73.99;98888.72;5064863;28;20492;-76
2024/02/01 04:44:58;;;;;;;4.53;3.87;;;7.90;79.10;;;7.34;74.55;98895.00;5078464;28;21171;-79
2024/02/01 04:47:26;;;;;;;4.40;3.80;;;7.90;79.00;;;7.29;74.94;98887.44;5063024;28;20470;-80
2024/02/01 04:49:53;;;;;;;5.07;4.40;;;7.90;79.20;;;7.09;74.58;98849.38;5059799;28;20459;-78
2024/02/01 04:52:20;;;;;;;3.90;3.37;;;7.80;79.20;;;7.26;74.69;98876.19;5058523;28;20815;-74
2024/02/01 04:54:48;;;;;;;5.87;4.57;;;7.80;79.20;;;7.38;74.54;98880.19;5061279;28;20970;-78
2024/02/01 04:57:16;;;;;;;5.10;4.60;;;7.90;79.30;;;7.39;75.16;98876.50;5065655;28;20488;-75
2024/02/01 04:59:44;;;;;;;5.40;3.87;;;7.80;79.30;;;7.34;75.48;98885.06;5066071;28;20466;-77
2024/02/01 05:02:11;;;;;;;4.17;3.67;;;7.90;79.80;;;7.34;76.25;98884.25;5065106;28;20450;-76
2024/02/01 05:04:39;;;;;;;5.20;4.00;;;7.80;80.00;;;7.42;76.11;98884.22;5064076;28;21034;-76
2024/02/01 05:07:06;;;;;;;4.83;4.30;;;7.80;80.10;;;7.28;78.53;98880.41;5062599;28;20454;-76
2024/02/01 05:09:34;;;;;;;7.23;4.80;;;7.80;81.00;;;7.21;78.97;98892.88;5055244;28;20502;-76
2024/02/01 05:12:02;;;;;;;5.03;4.27;;;7.70;81.30;;;7.17;79.60;98896.88;5062849;28;20517;-76
2024/02/01 05:14:31;;;;;;;5.37;3.90;;;7.70;81.90;;;7.00;80.10;98872.75;5065241;28;20449;-76
2024/02/01 05:16:58;;;;;;;4.93;4.27;;;7.60;81.80;;;7.10;80.27;98891.34;5065052;28;20484;-77
2024/02/01 05:19:26;;;;;;;8.70;4.63;;;7.60;82.20;;;7.05;80.75;98886.53;5064064;28;20491;-76
2024/02/01 05:21:54;;;;;;;7.10;4.97;;;7.60;82.70;;;7.12;81.10;98897.41;5066099;28;20449;-77
2024/02/01 05:24:22;;;;;;;6.30;4.93;;;7.60;83.10;;;7.14;81.87;98898.09;5066031;28;20564;-77
2024/02/01 05:26:51;;;;;;;8.00;4.63;;;7.60;83.40;;;7.05;83.38;98893.72;5070629;28;20855;-72
2024/02/01 05:29:19;;;;;;;9.27;5.17;;;7.60;84.00;;;6.91;84.16;98896.09;5077851;28;20449;-77
2024/02/01 05:31:50;;;;;;;6.60;5.00;;;7.50;84.60;;;6.84;85.64;98905.88;5066019;28;20486;-76
2024/02/01 05:34:18;;;;;;;8.40;5.53;;;7.40;85.60;;;6.70;86.41;98882.38;5061359;28;20475;-79
2024/02/01 05:36:51;;;;;;;11.03;6.03;;;7.40;86.80;;;6.46;87.68;98843.78;5064453;28;20553;-75
2024/02/01 05:39:26;;;;;;;7.40;6.33;;;7.40;88.00;;;6.55;88.84;98863.41;5065277;28;20830;-76
2024/02/01 05:41:55;;;;;;;11.43;6.90;;;7.30;89.30;;;6.75;88.97;98888.06;5066149;28;20485;-78
2024/02/01 05:44:25;;;;;;;8.37;5.73;;;7.30;90.20;;;6.89;89.70;98902.66;5063344;28;20562;-75
2024/02/01 05:46:55;;;;;;;7.00;5.93;;;7.30;90.80;;;6.89;89.18;98914.25;5069057;28;20447;-78
2024/02/01 05:49:24;;;;;;;8.20;6.50;;;7.30;90.80;;;6.76;90.46;98904.03;5069045;28;20457;-74
2024/02/01 05:51:54;;;;;;;8.57;6.10;;;7.30;91.00;;;6.77;90.91;98902.16;5069044;28;20479;-75
2024/02/01 05:54:22;;;;;;;8.20;6.50;;;7.30;91.30;;;6.73;91.59;98909.72;5067198;28;20438;-74
2024/02/01 05:56:50;;;;;;;7.10;6.07;;;7.30;91.60;;;6.80;91.66;98904.50;5069719;28;20449;-77
2024/02/01 05:59:20;;;;;;;10.13;6.20;;;7.30;92.00;;;6.72;92.43;98899.97;5063977;28;20903;-76
2024/02/01 06:01:48;;;;;;;9.20;5.97;;;7.20;92.10;;;6.77;92.18;98905.69;5067089;28;20466;-75
2024/02/01 06:04:17;;;;;;;7.30;6.57;;;7.30;92.30;;;6.72;92.74;98902.66;5065234;28;20449;-73
2024/02/01 06:06:47;;;;;;;9.70;6.70;;;7.30;92.50;;;6.94;94.64;98911.06;5085221;28;20950;-77
2024/02/01 06:09:15;;;;;;;10.07;6.90;;;7.40;93.90;;;6.59;93.64;98862.06;5065047;28;20445;-74
2024/02/01 06:11:44;;;;;;;8.10;6.73;;;7.40;93.30;;;6.75;93.58;98907.72;5066992;28;20445;-74
2024/02/01 06:14:14;;;;;;;8.50;6.70;;;7.30;92.70;;;6.87;94.45;98912.72;5058813;28;20864;-74
2024/02/01 06:16:41;;;;;;;6.70;5.87;;;7.40;93.20;;;6.88;94.10;98907.19;5064852;28;20555;-75
2024/02/01 06:19:09;;;;;;;7.00;6.30;;;7.40;93.20;;;6.86;94.66;98913.75;5066918;28;20474;-76
2024/02/01 06:21:37;;;;;;;7.37;5.67;;;7.40;93.30;;;6.80;94.42;98909.88;5073766;28;20447;-72
2024/02/01 06:24:10;;;;;;;8.77;6.90;;;7.40;93.00;;;6.88;95.51;98917.94;5077202;28;20455;-75
2024/02/01 06:26:37;;;;;;;9.23;6.83;;;7.40;93.80;;;6.91;94.86;98917.59;5069294;28;20954;-72
2024/02/01 06:29:08;;;;;;;9.70;5.90;;;7.40;94.00;;;6.84;94.41;98921.97;5066823;28;20464;-72
2024/02/01 06:31:37;;;;;;;6.60;5.90;;;7.40;93.60;;;6.76;95.16;98921.97;5063693;28;20461;-73
2024/02/01 06:34:05;;;;;;;7.30;6.10;;;7.30;93.70;;;6.62;96.76;98908.22;5065502;28;20935;-75
2024/02/01 06:36:36;;;;;;;7.03;6.30;;;7.30;94.20;;;6.70;96.24;98923.47;5061777;28;20498;-75
2024/02/01 06:39:16;;;;;;;10.07;7.10;;;7.30;94.50;;;6.75;96.17;98923.84;5060477;28;20474;-74
2024/02/01 06:41:51;;;;;;;10.47;6.70;;;7.20;94.40;;;6.28;96.76;98860.03;5063831;28;20458;-88
2024/02/01 06:44:24;;;;;;;10.50;6.90;;;7.20;95.00;;;6.61;97.10;98922.66;5074663;28;20518;-72
2024/02/01 06:47:11;;;;;;;9.87;6.57;;;7.20;95.20;;;6.59;97.36;98918.44;5066127;28;20966;-72
2024/02/01 06:50:03;;;;;;;8.87;6.60;;;7.20;95.40;;;6.64;97.91;98916.13;5048670;28;20459;-73
2024/02/01 06:52:39;;;;;;;8.00;6.47;;;7.20;95.80;;;6.44;98.88;98916.41;5066012;28;20537;-77
2024/02/01 06:58:13;;;;;;;7.13;5.80;;;7.10;96.60;;;6.60;98.25;98920.16;5058237;28;20471;-73
2024/02/01 07:01:01;;;;;;;10.10;6.73;;;7.10;96.30;;;6.50;99.21;98915.78;5059900;28;20453;-73
2024/02/01 07:03:57;;;;;;;7.80;5.10;;;7.00;96.80;;;6.41;98.54;98899.81;5063791;28;20458;-73
2024/02/01 07:06:39;;;;;;;8.23;5.20;;;7.10;96.70;;;6.57;99.39;98931.19;5066433;28;20453;-75
2024/02/01 07:09:28;;;;;;;6.83;6.13;;;7.10;96.90;;;6.55;99.43;98923.31;5060228;28;20459;-74
2024/02/01 07:12:09;;;;;;;7.00;5.93;;;7.10;96.70;;;6.54;99.89;98920.81;5056273;28;20471;-75
2024/02/01 07:14:39;;;;;;;8.47;5.70;;;7.00;97.60;;;5.27;99.22;98699.16;5055381;28;20465;-79
2024/02/01 07:19:56;;;;;;;6.87;5.37;;;7.10;97.80;;;6.76;99.08;98925.50;5059426;28;20474;-77
2024/02/01 07:25:33;;;;;;;7.23;5.97;;;7.20;97.20;;;6.49;99.73;98918.59;5073051;28;21194;-75
2024/02/01 07:58:38;;;;;;;5.53;4.90;;;7.00;99.40;;;6.56;100.00;98964.44;5071464;28;20492;-84
2024/02/01 08:01:17;;;;;;;6.23;5.20;;;7.10;99.90;;;6.54;100.00;98958.38;5078685;28;20453;-87
2024/02/01 08:03:59;;;;;;;4.60;4.20;;;7.00;99.60;;;6.09;100.00;98902.28;5079454;28;20441;-82
2024/02/01 08:09:13;;;;;;;5.90;4.90;;;7.10;99.80;;;6.60;100.00;98965.78;5055624;28;20206;-81
2024/02/01 08:11:41;;;;;;;5.63;4.87;;;7.10;99.90;;;6.60;100.00;98965.78;5064022;28;20451;-79
2024/02/01 08:14:10;;;;;;;4.97;4.57;;;7.10;99.90;;;6.61;100.00;98968.28;5078141;28;20491;-81
2024/02/01 08:16:39;;;;;;;5.20;4.70;;;7.10;99.90;;;6.76;100.00;98963.13;5078798;28;21029;-83
2024/02/01 08:19:07;;;;;;;5.10;4.60;;;7.20;99.90;;;6.83;100.00;98978.56;5084879;28;20484;-85
2024/02/01 08:21:37;;;;;;;6.27;4.67;;;7.30;99.90;;;6.85;100.00;98971.16;5071171;28;21313;-83
2024/02/01 08:24:06;;;;;;;5.83;5.30;;;7.40;99.70;;;6.89;100.00;98981.41;5056550;28;20436;-81
2024/02/01 08:26:37;;;;;;;5.13;4.67;;;7.30;98.60;;;7.15;100.00;98985.78;5053128;28;20566;-83
2024/02/01 08:29:07;;;;;;;3.80;3.50;;;7.50;99.50;;;6.98;100.00;98987.63;5054023;28;20460;-85
2024/02/01 08:31:36;;;;;;;4.37;3.97;;;7.50;98.40;;;6.84;100.00;98985.59;5059308;28;20495;-77
2024/02/01 08:34:07;;;;;;;7.43;4.50;;;7.40;98.20;;;6.91;100.00;98989.31;5062041;28;20463;-83
2024/02/01 08:36:41;;;;;;;4.20;3.77;;;7.40;98.20;;;6.95;100.00;98982.59;5083470;28;20450;-79
2024/02/01 08:39:09;;;;;;;5.90;3.80;;;7.40;98.40;;;7.00;100.00;98985.59;5068038;28;20474;-79
2024/02/01 08:41:37;;;;;;;4.20;3.80;;;7.40;98.40;;;6.92;100.00;98991.81;5070606;28;20460;-83
2024/02/01 08:44:06;;;;;;;3.97;3.53;;;7.40;98.50;;;6.86;100.00;98994.31;5058773;28;20456;-83
2024/02/01 08:46:33;;;;;;;6.80;3.53;;;7.40;98.70;;;6.90;100.00;99001.03;5075195;28;20511;-79
2024/02/01 08:49:01;;;;;;;4.30;3.90;;;7.40;98.50;;;6.85;100.00;98992.66;5057421;28;20523;-81
2024/02/01 08:51:30;;;;;;;5.00;3.27;;;7.30;98.50;;;6.87;100.00;98987.94;5057251;28;20460;-84
2024/02/01 08:53:57;;;;;;;3.73;3.37;;;7.40;98.60;;;6.84;100.00;98989.16;5042943;28;21010;-83
2024/02/01 08:56:36;;;;;;;3.57;3.27;;;7.40;98.20;;;6.93;100.00;98984.59;5058302;28;23501;-82
2024/02/01 08:59:03;;;;;;;4.00;3.70;;;7.40;98.70;;;6.86;100.00;98984.44;5060246;28;20549;-82
2024/02/01 09:01:30;;;;;;;3.67;3.30;;;7.40;98.40;;;6.97;100.00;98985.94;5063038;28;20447;-83
2024/02/01 09:03:59;;;;;;;3.97;3.57;;;7.50;98.80;;;6.90;100.00;98974.16;5063489;28;20442;-80
2024/02/01 09:06:27;;;;;;;3.17;2.87;;;7.50;98.70;;;6.94;100.00;98991.66;5059849;28;20487;-83
2024/02/01 09:08:56;;;;;;;4.90;3.00;;;7.50;99.00;;;6.86;100.00;98999.69;5065574;28;20457;-78
2024/02/01 09:11:24;;;;;;;5.30;2.67;;;7.50;98.90;;;6.83;100.00;99005.41;5069711;28;20483;-81
2024/02/01 09:13:51;;;;;;;4.30;3.03;;;7.40;99.10;;;6.89;100.00;99004.72;5057608;28;20507;-84
2024/02/01 09:16:22;;;;;;;3.70;2.77;;;7.50;99.80;;;6.94;100.00;99007.78;5061079;28;20456;-81
2024/02/01 09:18:49;;;;;;;5.77;3.20;;;7.50;99.90;;;7.12;100.00;99010.28;5064511;28;20538;-83
2024/02/01 09:21:18;;;;;;;3.37;3.07;;;7.50;99.90;;;7.15;100.00;99014.47;5064991;28;20452;-83
2024/02/01 09:23:45;;;;;;;3.03;2.77;;;7.60;99.20;;;7.01;100.00;99024.06;5056261;28;20475;-82
2024/02/01 09:26:14;;;;;;;3.23;2.97;;;7.60;98.20;;;7.03;100.00;99017.50;5066167;28;20477;-83
2024/02/01 09:28:42;;;;;;;3.70;2.83;;;7.60;98.40;;;7.05;100.00;99018.19;5062044;28;20455;-82
2024/02/01 09:31:19;;;;;;;3.20;2.50;;;7.60;98.50;;;7.01;100.00;99016.84;5070507;28;20438;-81
2024/02/01 09:33:47;;;;;;;4.23;2.53;;;7.60;98.70;;;7.06;100.00;99019.88;5068895;28;20581;-80
2024/02/01 09:36:15;;;;;;;3.43;3.13;;;7.50;99.40;;;7.00;100.00;99022.38;5072320;28;20542;-81
2024/02/01 09:38:42;;;;;;;2.33;2.13;;;7.60;99.90;;;7.00;100.00;99020.53;5079553;28;20478;-77
2024/02/01 09:41:15;;;;;;;3.33;2.43;;;7.60;99.90;;;6.92;100.00;99017.84;5082717;28;20795;-83
2024/02/01 09:43:47;;;;;;;2.80;2.57;;;7.60;99.90;;;6.84;100.00;99013.31;5091094;28;21012;-80
2024/02/01 09:46:16;;;;;;;2.80;2.30;;;7.50;99.90;;;6.89;100.00;99020.84;5076197;28;20448;-85
2024/02/01 09:48:44;;;;;;;2.43;2.23;;;7.50;99.90;;;6.76;100.00;99011.47;5063077;28;20484;-80
2024/02/01 09:51:17;;;;;;;3.10;2.63;;;7.50;99.90;;;6.87;100.00;99020.19;5083963;28;20811;-83
2024/02/01 09:53:47;;;;;;;2.70;2.50;;;7.50;99.90;;;6.87;100.00;99022.88;5076558;28;20452;-82
2024/02/01 09:56:15;;;;;;;2.00;1.80;;;7.50;99.90;;;6.91;100.00;99008.94;5077428;28;20453;-77
2024/02/01 09:58:44;;;;;;;2.10;2.00;;;7.50;99.90;;;6.90;100.00;99027.91;5077553;28;20469;-80
2024/02/01 10:01:12;;;;;;;2.33;2.13;;;7.50;99.90;;;6.79;100.00;99004.91;5074468;28;20995;-84
2024/02/01 10:03:42;;;;;;;3.03;2.37;;;7.50;99.90;;;6.87;100.00;99023.72;5066559;28;20476;-81
2024/02/01 10:06:10;;;;;;;4.30;3.10;;;7.50;99.90;;;7.01;100.00;99024.91;5061295;28;20491;-83
2024/02/01 10:08:38;;;;;;;1.83;1.73;;;7.60;99.90;;;7.03;100.00;99028.25;5054833;28;20449;-83
2024/02/01 10:11:06;;;;;;;4.03;3.37;;;7.60;99.90;;;6.99;100.00;99016.16;5064249;28;20463;-79
2024/02/01 10:13:35;;;;;;;3.20;2.43;;;7.70;99.90;;;7.15;100.00;99030.59;5072767;28;20506;-82
2024/02/01 10:16:12;;;;;;;2.27;2.07;;;7.70;99.90;;;7.18;100.00;99031.13;5057778;28;20447;-85
2024/02/01 10:18:40;;;;;;;2.80;2.60;;;7.70;99.90;;;7.13;100.00;99033.47;5078465;28;20453;-84
2024/02/01 10:21:21;;;;;;;2.53;2.33;;;7.70;99.90;;;7.16;100.00;99022.38;5065384;28;20528;-81
2024/02/01 10:24:04;;;;;;;2.43;2.20;;;7.80;99.90;;;7.28;100.00;99025.56;5067181;28;20455;-84
2024/02/01 10:26:32;;;;;;;2.00;1.90;;;7.90;99.90;;;7.29;100.00;99029.94;5059023;28;20459;-83
2024/02/01 10:28:59;;;;;;;2.33;2.20;;;7.90;98.40;;;7.25;100.00;99036.66;5073568;28;20488;-81
2024/02/01 10:31:31;;;;;;;2.60;2.40;;;7.90;99.30;;;7.25;100.00;99025.91;5077634;28;20500;-81
2024/02/01 10:34:07;;;;;;;2.50;2.30;;;7.90;99.90;;;7.16;100.00;99027.75;5063597;28;20544;-82
2024/02/01 10:36:41;;;;;;;2.20;2.00;;;7.80;99.90;;;7.23;100.00;99027.94;5066182;28;20817;-82
2024/02/01 10:39:16;;;;;;;2.50;2.10;;;7.80;99.90;;;7.04;100.00;99007.59;5064082;28;20480;-82
2024/02/01 10:41:53;;;;;;;2.50;2.30;;;7.80;99.60;;;7.15;100.00;99027.91;5086633;28;20484;-82
2024/02/01 10:44:23;;;;;;;2.30;2.10;;;7.70;99.90;;;7.25;100.00;99015.16;5077075;28;20448;-78
2024/02/01 10:46:56;;;;;;;2.50;2.30;;;7.80;99.90;;;7.32;100.00;99002.69;5083783;28;20462;-78
2024/02/01 10:49:26;;;;;;;2.47;2.27;;;7.90;99.90;;;7.34;100.00;99002.53;5083797;28;20502;-77
2024/02/01 10:51:55;;;;;;;2.30;2.20;;;7.90;99.40;;;7.36;100.00;99003.22;5079275;28;20977;-80
2024/02/01 10:54:23;;;;;;;2.63;2.43;;;8.00;98.30;;;7.50;100.00;99007.88;5076425;28;20531;-83
2024/02/01 10:56:51;;;;;;;2.20;2.00;;;8.00;98.20;;;7.61;100.00;99004.00;5071965;28;20494;-81
2024/02/01 10:59:20;;;;;;;2.67;2.23;;;8.20;97.40;;;7.62;100.00;99005.66;5065662;28;20468;-81
2024/02/01 11:01:47;;;;;;;2.63;2.10;;;8.20;96.80;;;7.50;99.45;98929.06;5071491;28;20461;-84
2024/02/01 11:04:16;;;;;;;2.03;1.93;;;8.30;96.60;;;8.17;98.60;98980.72;5065266;28;20483;-84
2024/02/01 11:06:48;;;;;;;2.50;2.30;;;8.60;95.90;;;8.37;97.30;98973.06;5070330;28;20455;-83
2024/02/01 11:09:22;;;;;;;2.50;2.30;;;8.80;95.10;;;8.50;96.75;98981.41;5065214;28;20442;-83
2024/02/01 11:11:52;;;;;;;2.27;2.07;;;9.00;94.20;;;8.36;94.79;98964.16;5070879;28;20449;-82
2024/02/01 11:14:22;;;;;;;2.60;2.00;;;9.00;92.80;;;8.53;95.17;98965.91;5084993;28;20540;-80
2024/02/01 11:16:54;;;;;;;2.07;1.97;;;9.00;93.20;;;8.59;92.60;98962.53;5066756;28;20457;-83
2024/02/01 11:19:25;;;;;;;1.40;1.30;;;9.20;92.00;;;8.61;92.38;98976.66;5067266;28;20479;-82
2024/02/01 11:21:56;;;;;;;2.47;2.00;;;9.20;91.70;;;8.56;92.67;98979.03;5059199;28;20520;-81